createdAt,value
2022-09-15T00:01:47.298Z,78577.81
2022-09-15T00:04:16.312Z,78576.50
2022-09-15T00:06:45.032Z,78590.97
2022-09-15T00:09:14.196Z,78592.53
2022-09-15T00:11:42.823Z,78579.56
2022-09-15T00:14:13.076Z,78576.44
2022-09-15T00:16:41.786Z,78561.84
2022-09-15T00:19:11.070Z,78592.00
2022-09-15T00:21:45.067Z,78579.06
2022-09-15T00:24:14.194Z,78577.31
2022-09-15T00:26:42.910Z,78592.53
2022-09-15T00:29:12.629Z,78588.44
2022-09-15T00:31:41.275Z,78586.19
2022-09-15T00:34:14.594Z,78589.19
2022-09-15T00:36:43.732Z,78583.66
2022-09-15T00:39:13.553Z,78579.50
2022-09-15T00:41:44.253Z,78589.28
2022-09-15T00:44:38.229Z,78583.84
2022-09-15T00:47:19.363Z,78587.91
2022-09-15T00:49:59.068Z,78589.75
2022-09-15T00:52:58.336Z,78578.06
2022-09-15T00:55:35.782Z,78587.56
2022-09-15T00:58:18.129Z,78585.59
2022-09-15T01:00:56.286Z,78589.53
2022-09-15T01:03:27.427Z,78592.28
2022-09-15T01:06:00.034Z,78583.50
2022-09-15T01:08:37.763Z,78594.34
2022-09-15T01:11:06.703Z,78580.75
2022-09-15T01:13:37.185Z,78591.41
2022-09-15T01:16:39.796Z,78598.88
2022-09-15T01:19:42.176Z,78587.38
2022-09-15T01:22:30.573Z,78593.25
2022-09-15T01:25:11.173Z,78594.69
2022-09-15T01:27:58.364Z,78592.84
2022-09-15T01:30:27.480Z,78582.94
2022-09-15T01:33:07.688Z,78598.97
2022-09-15T01:35:54.476Z,78598.97
2022-09-15T01:38:57.666Z,78597.13
2022-09-15T01:41:47.074Z,78599.47
2022-09-15T01:44:27.709Z,78596.81
2022-09-15T01:47:10.527Z,78600.06
2022-09-15T01:50:06.992Z,78608.97
2022-09-15T01:52:37.355Z,78604.50
2022-09-15T01:55:14.045Z,78574.00
2022-09-15T01:57:43.286Z,78604.66
2022-09-15T02:00:12.715Z,78606.88
2022-09-15T02:02:55.742Z,78611.78
2022-09-15T02:05:35.411Z,78604.22
2022-09-15T02:08:32.444Z,78608.38
2022-09-15T02:11:22.385Z,78604.63
2022-09-15T02:14:21.871Z,78602.06
2022-09-15T02:16:55.236Z,78597.34
2022-09-15T02:19:42.297Z,78617.19
2022-09-15T02:22:18.486Z,78612.56
2022-09-15T02:24:53.158Z,78614.94
2022-09-15T02:27:26.235Z,78598.19
2022-09-15T02:30:00.276Z,78610.44
2022-09-15T02:32:31.150Z,78621.50
2022-09-15T02:35:05.700Z,78601.47
2022-09-15T02:37:38.117Z,78614.31
2022-09-15T02:40:08.701Z,78624.03
2022-09-15T02:42:37.735Z,78605.16
2022-09-15T02:45:07.052Z,78612.81
2022-09-15T02:47:41.731Z,78620.75
2022-09-15T02:50:10.981Z,78620.66
2022-09-15T02:52:39.633Z,78613.81
2022-09-15T02:55:08.726Z,78630.19
2022-09-15T02:57:37.305Z,78622.72
2022-09-15T03:00:14.622Z,78628.00
2022-09-15T03:02:51.961Z,78625.09
2022-09-15T03:05:39.707Z,78621.75
2022-09-15T03:08:28.909Z,78607.63
2022-09-15T03:11:18.036Z,78617.50
2022-09-15T03:14:09.063Z,78630.66
2022-09-15T03:16:59.447Z,78624.31
2022-09-15T03:19:48.633Z,78630.28
2022-09-15T03:22:37.840Z,78630.53
2022-09-15T03:25:28.095Z,78635.91
2022-09-15T03:28:17.288Z,78624.97
2022-09-15T03:31:08.898Z,78634.22
2022-09-15T03:33:59.072Z,78635.06
2022-09-15T03:36:48.748Z,78620.81
2022-09-15T03:39:38.371Z,78629.59
2022-09-15T03:42:27.692Z,78629.47
2022-09-15T03:45:17.016Z,78630.50
2022-09-15T03:48:09.768Z,78624.53
2022-09-15T03:50:58.982Z,78628.44
2022-09-15T03:53:47.977Z,78622.34
2022-09-15T03:56:37.211Z,78627.78
2022-09-15T03:59:26.616Z,78625.56
2022-09-15T04:02:16.103Z,78631.66
2022-09-15T04:05:05.396Z,78629.41
2022-09-15T04:07:54.585Z,78625.50
2022-09-15T04:10:43.946Z,78635.06
2022-09-15T04:13:33.652Z,78621.50
2022-09-15T04:16:25.956Z,78630.78
2022-09-15T04:19:15.931Z,78635.13
2022-09-15T04:22:04.981Z,78634.31
2022-09-15T04:24:54.800Z,78626.78
2022-09-15T04:27:43.872Z,78635.41
2022-09-15T04:30:33.108Z,78625.25
2022-09-15T04:33:22.303Z,78632.72
2022-09-15T04:36:18.038Z,78637.09
2022-09-15T04:39:07.849Z,78627.94
2022-09-15T04:41:57.182Z,78630.97
2022-09-15T04:44:46.196Z,78627.06
2022-09-15T04:47:35.476Z,78633.66
2022-09-15T04:50:24.437Z,78631.31
2022-09-15T04:53:24.081Z,78628.25
2022-09-15T04:56:18.436Z,78636.19
2022-09-15T04:59:07.687Z,78632.16
2022-09-15T05:01:57.085Z,78646.44
2022-09-15T05:04:46.678Z,78634.97
2022-09-15T05:07:36.140Z,78626.59
2022-09-15T05:10:25.366Z,78623.34
2022-09-15T05:13:14.496Z,78621.88
2022-09-15T05:16:13.189Z,78621.00
2022-09-15T05:19:04.101Z,78629.34
2022-09-15T05:21:53.254Z,78633.81
2022-09-15T05:24:42.487Z,78621.53
2022-09-15T05:27:35.361Z,78618.47
2022-09-15T05:30:37.754Z,78631.28
2022-09-15T05:33:29.404Z,78625.06
2022-09-15T05:36:21.295Z,78627.13
2022-09-15T05:39:10.658Z,78615.81
2022-09-15T05:42:00.632Z,78629.34
2022-09-15T05:44:50.438Z,78602.19
2022-09-15T05:47:39.938Z,78620.28
2022-09-15T05:50:29.215Z,78600.59
2022-09-15T05:53:18.825Z,78603.81
2022-09-15T05:56:13.004Z,78609.91
2022-09-15T05:59:02.163Z,78599.19
2022-09-15T06:01:51.314Z,78590.47
2022-09-15T06:04:40.301Z,78595.13
2022-09-15T06:07:29.801Z,78591.22
2022-09-15T06:10:19.251Z,78591.88
2022-09-15T06:13:08.703Z,78600.97
2022-09-15T06:16:02.646Z,78602.38
2022-09-15T06:18:53.930Z,78594.25
2022-09-15T06:21:43.215Z,78590.16
2022-09-15T06:24:32.427Z,78579.69
2022-09-15T06:27:06.856Z,78585.88
2022-09-15T06:29:37.217Z,78582.38
2022-09-15T06:32:24.405Z,78584.69
2022-09-15T06:34:53.300Z,78587.59
2022-09-15T06:37:23.881Z,78582.09
2022-09-15T06:39:52.773Z,78578.09
2022-09-15T06:42:21.726Z,78584.88
2022-09-15T06:44:50.906Z,78579.38
2022-09-15T06:47:20.602Z,78580.81
2022-09-15T06:49:49.501Z,78580.97
2022-09-15T06:52:18.151Z,78567.47
2022-09-15T06:54:46.897Z,78561.56
2022-09-15T06:57:15.506Z,78575.00
2022-09-15T06:59:44.725Z,78566.31
2022-09-15T07:02:13.360Z,78543.41
2022-09-15T07:04:42.819Z,78545.69
2022-09-15T07:07:11.775Z,78569.47
2022-09-15T07:09:41.414Z,78552.69
2022-09-15T07:12:11.556Z,78552.09
2022-09-15T07:14:40.247Z,78563.44
2022-09-15T07:17:08.785Z,78557.53
2022-09-15T07:19:37.646Z,78536.50
2022-09-15T07:22:06.595Z,78540.91
2022-09-15T07:24:35.381Z,78517.78
2022-09-15T07:27:04.422Z,78548.69
2022-09-15T07:29:37.588Z,78545.75
2022-09-15T07:32:07.079Z,78545.34
2022-09-15T07:34:35.774Z,78535.97
2022-09-15T07:37:04.902Z,78535.66
2022-09-15T07:39:34.145Z,78545.34
2022-09-15T07:42:02.904Z,78530.00
2022-09-15T07:44:31.616Z,78536.06
2022-09-15T07:47:00.877Z,78530.91
2022-09-15T07:49:30.036Z,78535.81
2022-09-15T07:51:58.787Z,78535.38
2022-09-15T07:54:28.098Z,78516.44
2022-09-15T07:56:57.397Z,78532.22
2022-09-15T07:59:27.213Z,78534.69
2022-09-15T08:01:56.317Z,78521.78
2022-09-15T08:04:24.959Z,78525.84
2022-09-15T08:06:53.931Z,78531.47
2022-09-15T08:09:22.643Z,78521.69
2022-09-15T08:11:52.013Z,78507.47
2022-09-15T08:14:20.592Z,78516.09
2022-09-15T08:16:49.584Z,78495.00
2022-09-15T08:19:18.128Z,78506.53
2022-09-15T08:21:48.201Z,78511.56
2022-09-15T08:24:17.723Z,78488.47
2022-09-15T08:26:47.982Z,78489.56
2022-09-15T08:29:16.819Z,78502.03
2022-09-15T08:31:47.446Z,78494.25
2022-09-15T08:34:18.231Z,78504.16
2022-09-15T08:36:48.990Z,78490.72
2022-09-15T08:39:17.827Z,78484.06
2022-09-15T08:41:49.430Z,78495.97
2022-09-15T08:44:33.513Z,78487.75
2022-09-15T08:47:18.354Z,78475.53
2022-09-15T08:50:16.323Z,78484.81
2022-09-15T08:52:56.527Z,78466.38
2022-09-15T08:55:51.242Z,78472.44
2022-09-15T08:58:26.722Z,78478.50
2022-09-15T09:01:05.624Z,78467.56
2022-09-15T09:03:58.835Z,78465.50
2022-09-15T09:06:46.339Z,78465.31
2022-09-15T09:09:34.949Z,78458.63
2022-09-15T09:12:19.968Z,78447.81
2022-09-15T09:15:00.835Z,78463.72
2022-09-15T09:17:33.340Z,78447.19
2022-09-15T09:20:11.991Z,78449.97
2022-09-15T09:22:45.385Z,78443.19
2022-09-15T09:25:27.333Z,78437.66
2022-09-15T09:27:59.513Z,78428.94
2022-09-15T09:30:34.078Z,78440.13
2022-09-15T09:33:36.650Z,78422.63
2022-09-15T09:36:10.019Z,78412.13
2022-09-15T09:38:44.755Z,78412.81
2022-09-15T09:41:26.405Z,78412.81
2022-09-15T09:43:57.054Z,78407.75
2022-09-15T09:46:25.935Z,78421.19
2022-09-15T09:49:13.372Z,78420.41
2022-09-15T09:52:03.350Z,78407.78
2022-09-15T09:54:34.391Z,78377.19
2022-09-15T09:57:15.950Z,78397.78
2022-09-15T09:59:50.903Z,78399.06
2022-09-15T10:02:23.067Z,78408.44
2022-09-15T10:05:16.132Z,78378.53
2022-09-15T10:07:45.384Z,78396.34
2022-09-15T10:10:24.204Z,78384.66
2022-09-15T10:12:57.451Z,78398.88
2022-09-15T10:15:35.048Z,78391.66
2022-09-15T10:18:04.082Z,78384.63
2022-09-15T10:21:00.838Z,78380.56
2022-09-15T10:23:32.104Z,78392.47
2022-09-15T10:26:21.397Z,78387.81
2022-09-15T10:29:18.326Z,78377.47
2022-09-15T10:31:48.013Z,78379.84
2022-09-15T10:34:33.455Z,78374.72
2022-09-15T10:37:31.910Z,78378.44
2022-09-15T10:40:09.552Z,78373.03
2022-09-15T10:42:52.044Z,78374.50
2022-09-15T10:45:39.689Z,78380.31
2022-09-15T10:48:46.550Z,78379.13
2022-09-15T10:51:37.057Z,78372.75
2022-09-15T10:54:37.132Z,78382.88
2022-09-15T10:57:28.588Z,78385.78
2022-09-15T11:00:03.697Z,78380.00
2022-09-15T11:02:51.011Z,78372.75
2022-09-15T11:05:22.638Z,78379.50
2022-09-15T11:08:00.615Z,78367.75
2022-09-15T11:10:37.286Z,78368.56
2022-09-15T11:13:23.649Z,78359.66
2022-09-15T11:16:11.115Z,78379.97
2022-09-15T11:19:00.495Z,78375.34
2022-09-15T11:21:31.781Z,78372.84
2022-09-15T11:24:13.892Z,78378.28
2022-09-15T11:26:55.978Z,78361.97
2022-09-15T11:29:48.083Z,78372.84
2022-09-15T11:32:23.934Z,78375.38
2022-09-15T11:35:17.829Z,78374.72
2022-09-15T11:37:52.051Z,78364.81
2022-09-15T11:40:51.768Z,78352.38
2022-09-15T11:43:26.341Z,78359.72
2022-09-15T11:45:58.331Z,78369.34
2022-09-15T11:48:35.058Z,78357.56
2022-09-15T11:51:06.340Z,78365.34
2022-09-15T11:53:51.573Z,78341.25
2022-09-15T11:56:33.534Z,78363.69
2022-09-15T11:59:35.532Z,78357.25
2022-09-15T12:02:16.972Z,78349.41
2022-09-15T12:05:09.151Z,78352.06
2022-09-15T12:07:49.511Z,78332.94
2022-09-15T12:10:43.302Z,78350.25
2022-09-15T12:13:20.684Z,78344.78
2022-09-15T12:15:51.810Z,78343.63
2022-09-15T12:18:38.961Z,78357.47
2022-09-15T12:21:22.251Z,78357.25
2022-09-15T12:23:51.590Z,78367.06
2022-09-15T12:26:26.901Z,78350.88
2022-09-15T12:29:03.204Z,78355.28
2022-09-15T12:31:38.279Z,78351.31
2022-09-15T12:34:28.052Z,78350.91
2022-09-15T12:37:15.302Z,78333.03
2022-09-15T12:39:46.849Z,78335.66
2022-09-15T12:42:19.539Z,78344.84
2022-09-15T12:44:59.584Z,78337.59
2022-09-15T12:47:40.278Z,78353.38
2022-09-15T12:50:24.260Z,78337.16
2022-09-15T12:53:02.760Z,78350.28
2022-09-15T12:55:36.401Z,78339.28
2022-09-15T12:58:11.840Z,78326.97
2022-09-15T13:01:06.867Z,78345.16
2022-09-15T13:06:35.904Z,78355.66
2022-09-15T13:09:06.085Z,78347.78
2022-09-15T13:11:41.399Z,78358.16
2022-09-15T13:14:32.758Z,78345.22
2022-09-15T13:17:08.867Z,78344.22
2022-09-15T13:19:41.887Z,78352.13
2022-09-15T13:22:28.368Z,78335.03
2022-09-15T13:25:14.738Z,78344.00
2022-09-15T13:27:53.051Z,78340.88
2022-09-15T13:30:31.296Z,78339.88
2022-09-15T13:33:26.006Z,78329.59
2022-09-15T13:36:09.708Z,78347.41
2022-09-15T13:38:41.471Z,78340.16
2022-09-15T13:41:28.328Z,78337.72
2022-09-15T13:44:06.251Z,78332.84
2022-09-15T13:46:57.774Z,78340.16
2022-09-15T13:49:47.002Z,78331.44
2022-09-15T13:52:23.613Z,78337.13
2022-09-15T13:55:28.843Z,78331.00
2022-09-15T14:01:04.636Z,78313.72
2022-09-15T14:03:52.198Z,78331.63
2022-09-15T14:06:40.923Z,78338.44
2022-09-15T14:09:29.027Z,78339.19
2022-09-15T14:12:06.345Z,78320.25
2022-09-15T14:14:48.979Z,78337.00
2022-09-15T14:17:26.928Z,78345.63
2022-09-15T14:19:58.320Z,78343.56
2022-09-15T14:22:28.685Z,78345.00
2022-09-15T14:24:59.401Z,78351.00
2022-09-15T14:27:34.947Z,78347.69
2022-09-15T14:30:09.490Z,78333.56
2022-09-15T14:32:47.249Z,78338.56
2022-09-15T14:35:23.999Z,78353.22
2022-09-15T14:37:59.291Z,78353.13
2022-09-15T14:40:31.028Z,78356.78
2022-09-15T14:43:00.019Z,78353.56
2022-09-15T14:48:31.558Z,78365.09
2022-09-15T14:51:24.388Z,78333.72
2022-09-15T14:53:59.596Z,78364.66
2022-09-15T14:56:36.888Z,78365.03
2022-09-15T14:59:12.861Z,78362.72
2022-09-15T15:01:48.628Z,78377.22
2022-09-15T15:04:36.021Z,78371.63
2022-09-15T15:07:28.731Z,78378.50
2022-09-15T15:10:02.651Z,78372.22
2022-09-15T15:12:51.286Z,78375.16
2022-09-15T15:15:20.882Z,78375.38
2022-09-15T15:17:55.412Z,78367.47
2022-09-15T15:20:31.108Z,78375.00
2022-09-15T15:23:16.377Z,78376.03
2022-09-15T15:25:45.509Z,78381.88
2022-09-15T15:28:35.453Z,78388.22
2022-09-15T15:31:22.843Z,78376.03
2022-09-15T15:34:06.095Z,78392.94
2022-09-15T15:36:36.736Z,78386.63
2022-09-15T15:39:08.797Z,78363.66
2022-09-15T15:41:43.697Z,78384.38
2022-09-15T15:44:18.320Z,78394.50
2022-09-15T15:46:56.814Z,78386.56
2022-09-15T15:49:28.333Z,78403.06
2022-09-15T15:52:01.503Z,78394.94
2022-09-15T15:54:30.474Z,78388.38
2022-09-15T15:57:21.273Z,78356.97
2022-09-15T15:59:50.176Z,78383.81
2022-09-15T16:02:18.843Z,78384.00
2022-09-15T16:04:48.026Z,78387.06
2022-09-15T16:07:24.469Z,78401.19
2022-09-15T16:09:55.051Z,78369.50
2022-09-15T16:12:24.579Z,78388.63
2022-09-15T16:14:53.181Z,78398.56
2022-09-15T16:17:22.506Z,78384.81
2022-09-15T16:19:51.334Z,78396.97
2022-09-15T16:22:21.798Z,78375.50
2022-09-15T16:24:50.664Z,78377.25
2022-09-15T16:27:19.816Z,78385.63
2022-09-15T16:29:48.942Z,78392.00
2022-09-15T16:32:20.930Z,78392.75
2022-09-15T16:34:53.361Z,78386.38
2022-09-15T16:37:22.992Z,78371.06
2022-09-15T16:39:53.366Z,78384.22
2022-09-15T16:42:22.534Z,78387.41
2022-09-15T16:44:51.304Z,78398.91
2022-09-15T16:47:20.234Z,78392.66
2022-09-15T16:49:48.854Z,78408.63
2022-09-15T16:52:18.625Z,78401.72
2022-09-15T16:54:47.224Z,78407.69
2022-09-15T16:57:18.936Z,78384.25
2022-09-15T16:59:47.803Z,78390.28
2022-09-15T17:02:16.620Z,78407.84
2022-09-15T17:04:45.533Z,78415.75
2022-09-15T17:07:14.119Z,78413.13
2022-09-15T17:09:43.204Z,78408.09
2022-09-15T17:14:43.453Z,78416.38
2022-09-15T17:17:25.935Z,78420.06
2022-09-15T17:19:55.493Z,78406.72
2022-09-15T17:22:25.178Z,78423.97
2022-09-15T17:24:54.412Z,78421.34
2022-09-15T17:27:23.039Z,78417.88
2022-09-15T17:29:51.852Z,78409.47
2022-09-15T17:32:21.168Z,78412.25
2022-09-15T17:34:50.250Z,78425.28
2022-09-15T17:37:18.815Z,78426.19
2022-09-15T17:39:47.811Z,78416.50
2022-09-15T17:42:17.148Z,78413.91
2022-09-15T17:44:46.490Z,78407.69
2022-09-15T17:47:15.296Z,78418.38
2022-09-15T17:49:44.413Z,78434.28
2022-09-15T17:52:12.980Z,78410.38
2022-09-15T17:54:41.879Z,78412.09
2022-09-15T17:57:11.370Z,78411.44
2022-09-15T17:59:40.972Z,78421.06
2022-09-15T18:02:20.346Z,78406.88
2022-09-15T18:04:52.693Z,78410.44
2022-09-15T18:07:21.939Z,78399.81
2022-09-15T18:09:50.966Z,78406.72
2022-09-15T18:12:20.570Z,78408.34
2022-09-15T18:14:49.306Z,78425.81
2022-09-15T18:17:18.109Z,78424.94
2022-09-15T18:19:46.671Z,78408.97
2022-09-15T18:22:15.926Z,78413.97
2022-09-15T18:24:45.370Z,78409.88
2022-09-15T18:27:14.151Z,78402.25
2022-09-15T18:29:42.866Z,78405.72
2022-09-15T18:32:11.569Z,78419.97
2022-09-15T18:34:40.077Z,78406.66
2022-09-15T18:37:09.091Z,78413.94
2022-09-15T18:39:57.406Z,78409.44
2022-09-15T18:42:29.912Z,78416.38
2022-09-15T18:45:22.408Z,78396.72
2022-09-15T18:47:52.965Z,78414.88
2022-09-15T18:50:24.428Z,78404.09
2022-09-15T18:52:56.608Z,78414.72
2022-09-15T18:55:26.036Z,78400.00
2022-09-15T18:57:58.885Z,78393.09
2022-09-15T19:00:31.024Z,78407.94
2022-09-15T19:03:03.667Z,78393.16
2022-09-15T19:05:34.253Z,78405.38
2022-09-15T19:08:03.920Z,78403.59
2022-09-15T19:10:33.417Z,78393.09
2022-09-15T19:13:02.395Z,78392.88
2022-09-15T19:15:34.721Z,78397.13
2022-09-15T19:18:53.644Z,78387.66
2022-09-15T19:21:27.130Z,78382.47
2022-09-15T19:24:00.571Z,78366.66
2022-09-15T19:26:30.403Z,78380.09
2022-09-15T19:29:00.096Z,78381.31
2022-09-15T19:31:29.007Z,78351.63
2022-09-15T19:33:58.495Z,78373.44
2022-09-15T19:36:28.991Z,78359.75
2022-09-15T19:39:00.038Z,78334.44
2022-09-15T19:41:30.251Z,78353.56
2022-09-15T19:44:03.221Z,78362.69
2022-09-15T19:46:32.477Z,78355.69
2022-09-15T19:49:03.586Z,78360.47
2022-09-15T19:51:32.595Z,78349.72
2022-09-15T19:54:01.509Z,78366.09
2022-09-15T19:56:30.990Z,78370.25
2022-09-15T19:59:00.580Z,78369.25
2022-09-15T20:01:31.107Z,78366.47
2022-09-15T20:06:48.137Z,78343.69
2022-09-15T20:09:16.895Z,78343.03
2022-09-15T20:11:46.157Z,78342.97
2022-09-15T20:14:15.217Z,78356.69
2022-09-15T20:16:44.716Z,78359.28
2022-09-15T20:19:13.900Z,78356.50
2022-09-15T20:21:50.225Z,78361.16
2022-09-15T20:24:21.633Z,78360.19
2022-09-15T20:26:50.656Z,78360.44
2022-09-15T20:29:20.253Z,78357.66
2022-09-15T20:31:49.610Z,78334.97
2022-09-15T20:34:19.565Z,78343.91
2022-09-15T20:36:48.719Z,78329.53
2022-09-15T20:39:20.320Z,78352.47
2022-09-15T20:41:49.558Z,78337.97
2022-09-15T20:44:18.193Z,78355.44
2022-09-15T20:46:47.342Z,78344.88
2022-09-15T20:49:16.673Z,78355.66
2022-09-15T20:51:46.066Z,78356.69
2022-09-15T20:54:14.847Z,78366.44
2022-09-15T20:56:43.837Z,78315.38
2022-09-15T20:59:16.096Z,78327.72
2022-09-15T21:01:44.916Z,78350.94
2022-09-15T21:04:13.670Z,78353.25
2022-09-15T21:06:42.616Z,78337.94
2022-09-15T21:09:11.227Z,78335.06
2022-09-15T21:11:40.699Z,78346.47
2022-09-15T21:14:09.438Z,78345.75
2022-09-15T21:16:38.723Z,78336.09
2022-09-15T21:19:13.177Z,78333.00
2022-09-15T21:21:42.030Z,78349.06
2022-09-15T21:24:10.921Z,78344.78
2022-09-15T21:27:02.136Z,78356.09
2022-09-15T21:29:31.861Z,78346.44
2022-09-15T21:32:00.819Z,78335.78
2022-09-15T21:34:29.943Z,78338.97
2022-09-15T21:36:58.764Z,78355.09
2022-09-15T21:39:28.188Z,78331.81
2022-09-15T21:41:56.984Z,78346.09
2022-09-15T21:44:26.224Z,78347.25
2022-09-15T21:46:55.639Z,78344.66
2022-09-15T21:49:24.693Z,78340.41
2022-09-15T21:51:53.511Z,78321.66
2022-09-15T21:54:22.629Z,78339.84
2022-09-15T21:56:51.596Z,78348.38
2022-09-15T21:59:20.402Z,78333.06
2022-09-15T22:01:50.013Z,78349.38
2022-09-15T22:04:18.944Z,78343.81
2022-09-15T22:06:48.237Z,78342.97
2022-09-15T22:09:22.917Z,78343.16
2022-09-15T22:11:52.086Z,78341.19
2022-09-15T22:14:22.292Z,78345.38
2022-09-15T22:16:51.356Z,78336.47
2022-09-15T22:19:21.058Z,78340.28
2022-09-15T22:21:49.946Z,78344.47
2022-09-15T22:24:18.940Z,78334.94
2022-09-15T22:26:47.758Z,78334.56
2022-09-15T22:29:16.725Z,78326.84
2022-09-15T22:31:45.765Z,78330.13
2022-09-15T22:34:14.412Z,78328.75
2022-09-15T22:36:43.201Z,78343.56
2022-09-15T22:39:13.511Z,78330.44
2022-09-15T22:41:42.296Z,78330.44
2022-09-15T22:44:19.820Z,78346.06
2022-09-15T22:46:50.581Z,78344.31
2022-09-15T22:49:19.349Z,78344.34
2022-09-15T22:51:48.082Z,78327.69
2022-09-15T22:54:17.082Z,78328.50
2022-09-15T22:56:48.136Z,78335.63
2022-09-15T22:59:18.138Z,78329.78
2022-09-15T23:01:47.219Z,78334.25
2022-09-15T23:04:16.952Z,78341.50
2022-09-15T23:06:45.915Z,78340.19
2022-09-15T23:09:14.909Z,78345.66
2022-09-15T23:11:43.741Z,78333.78
2022-09-15T23:14:18.921Z,78345.66
2022-09-15T23:16:47.971Z,78328.09
2022-09-15T23:19:16.876Z,78329.97
2022-09-15T23:21:45.907Z,78331.91
2022-09-15T23:24:14.817Z,78326.66
2022-09-15T23:26:44.027Z,78310.38
2022-09-15T23:29:12.904Z,78324.41
2022-09-15T23:31:41.760Z,78320.88
2022-09-15T23:34:10.615Z,78325.44
2022-09-15T23:36:39.673Z,78320.63
2022-09-15T23:39:08.356Z,78327.50
2022-09-15T23:41:37.719Z,78291.13
2022-09-15T23:44:06.892Z,78304.78
2022-09-15T23:46:36.376Z,78305.91
2022-09-15T23:49:05.055Z,78319.72
2022-09-15T23:51:34.297Z,78326.69
2022-09-15T23:54:04.202Z,78311.44
2022-09-15T23:56:34.111Z,78318.69
2022-09-15T23:59:02.887Z,78321.28
